ISABELLA DAM (ISB)

Elevation: 2635' · KERN R basin · Operator: US Army Corps of Engineers

Provisional data, subject to change.
Query executed Sunday at 6:39:13   clock

Select a sensor type for a plot of data.
Note: Reservoir Flows are daily averages.

Earlier

Date RES ELE    STORAGE    RES CHG    TOC STO    ABV TOC    OUTFLOW    INFLOW    FNF    PPT INC    PPTINC4    TEMP MN    TEMP MX    WINDLEN    EVP PAN   
 FEET   AF   AF   AF   AF   CFS   CFS   CFS   INCHES   INCHES   DEG F   DEG F   MILES   INCHES  
03/20/2015 2530.45 47005 -49 341806 -294801 248 240 240 0.00 0.00 7 29 116 0.24
03/21/2015 2530.40 46884 -121 344312 -297428 261 218 218 0.00 0.00 12 25 187 0.26
03/22/2015 2530.34 46738 -146 346845 -300107 254 196 196 0.00 0.00 11 22 206 0.23
03/23/2015 2530.32 46690 -48 349338 -302648 233 222 222 0.00 0.00 11 18 209 0.20
03/24/2015 2530.30 46641 -49 349126 -305200 224 213 213 0.00 0.00 9 18 249 0.20
03/25/2015 2530.30 46641 0 351578 -307667 221 236 236 0.00 0.00 7 25 115 0.21
03/26/2015 2530.30 46641 0 354021 -307380 223 239 239 0.02 0.00 7 29 95 0.24
03/27/2015 2530.28 46593 -48 356459 -309866 247 240 240 0.03 0.00 10 30 99 0.25
03/28/2015 -- -- -- -- -- -- -- 256 0.00 0.00 -- -- -- --
03/29/2015 2530.27 46569 -- 361249 -- 259 276 276 0.00 0.00 8 28 131 0.25
03/30/2015 2530.27 46569 -- 349870 -- 264 282 282 0.00 0.00 8 30 97 0.25
03/31/2015 2530.24 46496 -73 r 361250 -- 270 251 251 0.00 0.00 12 22 207 0.25
04/01/2015 2530.20 46400 -- 361250 -314850 281 249 249 0.00 0.00 9 20 229 0.25
04/02/2015 2530.19 46375 -25 361250 -314875 274 278 278 0.00 0.00 8 20 188 0.25
04/03/2015 2530.17 46327 -48 361250 -314923 262 254 254 0.00 0.00 4 24 121 0.24
04/04/2015 2530.14 46255 -72 347477 -314995 261 241 241 0.00 0.00 6 24 120 0.24
04/05/2015 2530.09 46135 -120 350013 -315115 261 217 217 0.00 0.00 8 19 188 0.24
04/06/2015 2530.04 46015 -120 352561 -315235 253 207 207 0.00 0.00 8 16 172 0.21
04/07/2015 2530.01 45943 -72 355106 -315307 233 207 207 0.00 0.00 3 15 175 0.14
04/08/2015 2530.02 45967 24 335173 -311623 219 245 245 0.00 0.31 6 15 156 0.20
04/09/2015 2530.00 45919 -48 337804 -291885 226 217 217 0.00 0.00 3 23 163 0.22
04/10/2015 2529.98 45871 -48 340412 -294541 240 230 230 0.00 0.00 5 22 119 0.21
04/11/2015 2529.95 45799 -72 343031 -297232 240 221 221 0.00 0.00 9 22 163 0.24
04/12/2015 2529.93 45752 -47 345624 -299872 240 235 235 0.02 0.00 8 28 121 0.27
04/13/2015 2529.90 45680 -- 348231 -- 240 224 224 0.04 0.00 7 30 119 0.29
04/14/2015 2529.84 45537 -- 350899 -- 240 182 182 0.00 0.00 8 16 268 0.20
04/15/2015 2529.82 45490 -47 353484 -307994 240 233 233 0.00 0.00 4 22 119 0.24
04/16/2015 2529.79 45418 -72 356074 -310656 246 228 228 0.00 0.00 6 25 136 0.28
04/17/2015 2529.75 45323 -95 358696 -313373 235 205 -- 0.00 0.00 6 26 109 0.26
04/18/2015 2529.72 45252 -71 361250 -315998 228 212 -- 0.00 0.00 8 29 107 0.29
04/19/2015 -- -- -- -- -- -- -- -- -- -- -- -- -- --

Later | Latest

Warning! This data is preliminary and subject to revision.

Show ISB Map | Plot ISB Data | 1 Month ISB Data | Real-Time ISB Data | ISB Info